Time;durP1;ratioP1;P1;durP2;ratioP2;P2;SDS_P1;SDS_P2;PMS_P1;PMS_P2;Temp;Humidity;BMP_temperature;BMP_pressure;BME280_temperature;BME280_humidity;BME280_pressure;Samples;Min_cycle;Max_cycle;Signal;HPM_P1;HPM_P2
2020/12/06 00:00:14;;;;;;;14.93;8.03;;;3.90;99.90;;;;;;1968715;72;21517;-77
2020/12/06 00:02:40;;;;;;;13.43;7.95;;;4.00;99.90;;;;;;1981472;72;21150;-77
2020/12/06 00:05:06;;;;;;;14.13;8.15;;;4.10;99.90;;;;;;1973639;72;21068;-76
2020/12/06 00:07:34;;;;;;;12.33;7.80;;;4.10;99.90;;;;;;1966545;72;21106;-76
2020/12/06 00:10:01;;;;;;;14.55;8.48;;;4.10;99.90;;;;;;1974158;72;21162;-75
2020/12/06 00:12:27;;;;;;;14.45;8.73;;;4.10;99.90;;;;;;1977242;72;21153;-76
2020/12/06 00:14:53;;;;;;;13.70;8.83;;;3.90;99.90;;;;;;1975782;72;21204;-76
2020/12/06 00:17:19;;;;;;;13.50;8.38;;;3.90;99.90;;;;;;1982417;72;21205;-76
2020/12/06 00:19:47;;;;;;;13.53;8.70;;;4.00;99.90;;;;;;1980297;72;21068;-76
2020/12/06 00:22:13;;;;;;;13.03;8.05;;;3.90;99.90;;;;;;1983456;72;21184;-77
2020/12/06 00:24:39;;;;;;;15.32;8.58;;;3.90;99.90;;;;;;1986830;72;21137;-76
2020/12/06 00:27:05;;;;;;;14.28;8.68;;;3.90;99.90;;;;;;1974013;72;21084;-75
2020/12/06 00:29:31;;;;;;;13.22;7.72;;;3.80;99.90;;;;;;1973417;72;21479;-76
2020/12/06 00:31:57;;;;;;;14.75;8.68;;;3.80;99.90;;;;;;1986917;72;21565;-76
2020/12/06 00:34:25;;;;;;;14.90;9.33;;;3.60;99.90;;;;;;1969290;72;21478;-76
2020/12/06 00:36:51;;;;;;;14.23;8.30;;;3.70;99.90;;;;;;1967231;72;21075;-76
2020/12/06 00:39:17;;;;;;;12.68;8.48;;;3.80;99.90;;;;;;1986977;72;21033;-76
2020/12/06 00:41:44;;;;;;;14.43;8.88;;;3.90;99.90;;;;;;1976060;72;21150;-76
2020/12/06 00:44:10;;;;;;;11.00;7.72;;;3.90;99.90;;;;;;1986919;72;21137;-76
2020/12/06 00:46:36;;;;;;;15.63;8.90;;;3.90;99.90;;;;;;1986735;72;21141;-75
2020/12/06 00:49:02;;;;;;;18.17;9.05;;;3.90;99.90;;;;;;1978768;72;21141;-76
2020/12/06 00:51:28;;;;;;;13.98;8.55;;;3.90;99.90;;;;;;1980239;72;21060;-77
2020/12/06 00:53:54;;;;;;;14.00;8.68;;;3.90;99.90;;;;;;1975158;72;21173;-76
2020/12/06 00:56:20;;;;;;;13.10;8.08;;;3.90;99.90;;;;;;1980451;72;21037;-76
2020/12/06 00:58:47;;;;;;;11.57;8.00;;;3.90;99.90;;;;;;1971079;72;21136;-77
2020/12/06 01:01:13;;;;;;;15.13;9.13;;;3.90;99.90;;;;;;1978773;72;21080;-77
2020/12/06 01:03:39;;;;;;;15.60;8.40;;;3.90;99.90;;;;;;1969789;72;21149;-78
2020/12/06 01:06:05;;;;;;;15.80;8.93;;;3.80;99.90;;;;;;1966548;73;21072;-77
2020/12/06 01:08:31;;;;;;;11.68;8.35;;;3.90;99.90;;;;;;1966479;73;21032;-77
2020/12/06 01:10:57;;;;;;;14.07;9.03;;;4.00;99.90;;;;;;1966684;73;21037;-76
2020/12/06 01:13:23;;;;;;;13.38;8.35;;;4.00;99.90;;;;;;1979172;72;21084;-77
2020/12/06 01:15:50;;;;;;;13.53;8.00;;;3.90;99.90;;;;;;1975916;72;21056;-77
2020/12/06 01:18:16;;;;;;;13.95;8.88;;;3.90;99.90;;;;;;1969355;72;21072;-77
2020/12/06 01:20:42;;;;;;;16.57;9.33;;;3.80;99.90;;;;;;1970417;72;21198;-77
2020/12/06 01:23:08;;;;;;;14.20;8.88;;;3.70;99.90;;;;;;1972528;72;21202;-77
2020/12/06 01:25:34;;;;;;;17.12;9.08;;;3.60;99.90;;;;;;1977889;72;21504;-77
2020/12/06 01:28:00;;;;;;;16.85;9.23;;;3.70;99.90;;;;;;1974220;72;21476;-77
2020/12/06 01:30:26;;;;;;;13.80;9.15;;;3.70;99.90;;;;;;1972978;72;21452;-77
2020/12/06 01:32:52;;;;;;;14.98;9.40;;;3.70;99.90;;;;;;1974963;72;21122;-77
2020/12/06 01:35:18;;;;;;;15.88;8.93;;;3.80;99.90;;;;;;1983227;72;21239;-77
2020/12/06 01:37:45;;;;;;;19.70;8.83;;;3.80;99.90;;;;;;1968049;72;21056;-77
2020/12/06 01:40:11;;;;;;;14.28;9.00;;;3.80;99.90;;;;;;1975355;72;21072;-77
2020/12/06 01:42:37;;;;;;;15.75;9.15;;;3.80;99.90;;;;;;1983533;72;21064;-77
2020/12/06 01:45:03;;;;;;;11.60;7.92;;;3.80;99.90;;;;;;1972172;72;21033;-77
2020/12/06 01:47:29;;;;;;;15.88;8.98;;;3.70;99.90;;;;;;1972045;72;21075;-77
2020/12/06 01:49:55;;;;;;;14.85;8.13;;;3.60;99.90;;;;;;1979879;72;21141;-77
2020/12/06 01:52:21;;;;;;;17.65;8.78;;;3.80;99.90;;;;;;1986907;72;21277;-77
2020/12/06 01:54:47;;;;;;;14.75;9.03;;;3.80;99.90;;;;;;1974835;72;21149;-77
2020/12/06 01:57:14;;;;;;;20.30;10.03;;;3.80;99.90;;;;;;1974159;72;21096;-75
2020/12/06 01:59:40;;;;;;;14.58;9.35;;;3.80;99.90;;;;;;1971399;72;21068;-77
2020/12/06 02:02:06;;;;;;;18.55;9.15;;;3.90;99.90;;;;;;1971852;72;21079;-77
2020/12/06 02:04:32;;;;;;;18.32;10.08;;;3.80;99.90;;;;;;1966514;73;21491;-77
2020/12/06 02:06:58;;;;;;;16.27;9.60;;;3.80;99.90;;;;;;1977305;72;21472;-77
2020/12/06 02:09:24;;;;;;;16.45;8.85;;;3.80;99.90;;;;;;1966556;73;21541;-77
2020/12/06 02:11:50;;;;;;;14.85;9.10;;;3.70;99.90;;;;;;1977887;72;21592;-77
2020/12/06 02:14:16;;;;;;;18.42;9.80;;;3.70;99.90;;;;;;1966533;73;21063;-77
2020/12/06 02:16:43;;;;;;;14.50;8.68;;;3.70;99.90;;;;;;1981784;72;21145;-77
2020/12/06 02:19:09;;;;;;;18.00;9.25;;;3.80;99.90;;;;;;1968121;72;21069;-77
2020/12/06 02:21:35;;;;;;;18.05;10.63;;;3.70;99.90;;;;;;1977142;72;21068;-74
2020/12/06 02:24:01;;;;;;;15.88;9.65;;;3.50;99.90;;;;;;1981021;72;21049;-75
2020/12/06 02:26:27;;;;;;;17.50;9.20;;;3.60;99.90;;;;;;1973147;72;21068;-77
2020/12/06 02:28:53;;;;;;;16.15;9.43;;;3.60;99.90;;;;;;1970293;72;21114;-77
2020/12/06 02:31:19;;;;;;;17.10;8.80;;;3.70;99.90;;;;;;1966489;73;21032;-75
2020/12/06 02:33:45;;;;;;;15.25;10.03;;;3.60;99.90;;;;;;1968251;72;21059;-77
2020/12/06 02:36:11;;;;;;;19.23;9.88;;;3.50;99.90;;;;;;1975455;72;21083;-77
2020/12/06 02:38:38;;;;;;;16.07;9.90;;;3.50;99.90;;;;;;1977793;72;21037;-74
2020/12/06 02:41:04;;;;;;;18.52;9.50;;;3.60;99.90;;;;;;1974850;72;21185;-77
2020/12/06 02:43:30;;;;;;;24.63;10.48;;;3.50;99.90;;;;;;1968944;72;21160;-77
2020/12/06 02:45:56;;;;;;;20.70;10.32;;;3.50;99.90;;;;;;1975010;72;21489;-77
2020/12/06 02:48:22;;;;;;;21.42;9.83;;;3.50;99.90;;;;;;1975687;72;21457;-77
2020/12/06 02:50:48;;;;;;;17.67;8.78;;;3.50;99.90;;;;;;1972407;72;21441;-78
2020/12/06 02:53:14;;;;;;;19.75;10.50;;;3.50;99.90;;;;;;1941750;73;21562;-77
2020/12/06 02:55:40;;;;;;;16.55;9.85;;;3.60;99.90;;;;;;1969372;72;21263;-77
2020/12/06 02:58:07;;;;;;;23.00;11.08;;;3.50;99.90;;;;;;1971872;72;21063;-77
2020/12/06 03:00:33;;;;;;;20.23;10.05;;;3.60;99.90;;;;;;1979883;72;21067;-77
2020/12/06 03:02:59;;;;;;;20.95;10.58;;;3.60;99.90;;;;;;1975109;72;21130;-77
2020/12/06 03:05:25;;;;;;;17.75;9.55;;;3.50;99.90;;;;;;1975777;72;21048;-76
2020/12/06 03:07:51;;;;;;;20.12;10.10;;;3.40;99.90;;;;;;1966344;73;21063;-78
2020/12/06 03:10:17;;;;;;;16.50;10.45;;;3.50;99.90;;;;;;1966536;72;21087;-77
2020/12/06 03:12:43;;;;;;;18.50;11.30;;;3.50;99.90;;;;;;1970116;72;21160;-76
2020/12/06 03:15:09;;;;;;;19.75;10.80;;;3.50;99.90;;;;;;1966580;73;21432;-77
2020/12/06 03:17:36;;;;;;;18.55;10.78;;;3.50;99.90;;;;;;1976922;72;21405;-77
2020/12/06 03:20:02;;;;;;;22.52;10.30;;;3.60;99.90;;;;;;1966435;72;21491;-76
2020/12/06 03:22:32;;;;;;;17.60;11.43;;;3.60;99.90;;;;;;1979275;72;21500;-76
2020/12/06 03:24:56;;;;;;;19.27;10.98;;;3.50;99.90;;;;;;1977387;72;21181;-75
2020/12/06 03:27:22;;;;;;;16.60;9.78;;;3.60;99.90;;;;;;1966464;73;21072;-76
2020/12/06 03:29:48;;;;;;;21.10;10.40;;;3.60;99.90;;;;;;1966486;73;21036;-76
2020/12/06 03:32:14;;;;;;;15.15;9.75;;;3.70;99.90;;;;;;1976597;72;21488;-76
2020/12/06 03:34:40;;;;;;;23.60;11.45;;;3.70;99.90;;;;;;1974199;72;21500;-76
2020/12/06 03:37:06;;;;;;;22.82;11.68;;;3.50;99.90;;;;;;1973450;72;21539;-76
2020/12/06 03:39:32;;;;;;;23.07;11.50;;;3.40;99.90;;;;;;1966613;72;21052;-77
2020/12/06 03:41:58;;;;;;;26.75;11.78;;;3.50;99.90;;;;;;1980305;72;21062;-76
2020/12/06 03:44:25;;;;;;;22.05;11.97;;;3.40;99.90;;;;;;1977275;72;21103;-76
2020/12/06 03:46:51;;;;;;;25.48;12.20;;;3.30;99.90;;;;;;1986917;72;21052;-76
2020/12/06 03:49:17;;;;;;;19.07;11.70;;;3.30;99.90;;;;;;1986794;72;21064;-76
2020/12/06 03:51:43;;;;;;;19.50;11.18;;;3.40;99.90;;;;;;1975729;72;21040;-76
2020/12/06 03:54:09;;;;;;;20.77;11.15;;;3.30;99.90;;;;;;1941739;73;21056;-76
2020/12/06 03:56:35;;;;;;;18.07;11.63;;;3.30;99.90;;;;;;1976712;72;21065;-75
2020/12/06 03:59:01;;;;;;;26.42;11.60;;;3.30;99.90;;;;;;1983587;72;21060;-76
2020/12/06 04:01:27;;;;;;;22.10;11.18;;;3.30;99.90;;;;;;1980597;72;21080;-76
2020/12/06 04:03:54;;;;;;;18.80;11.22;;;3.40;99.90;;;;;;1966434;72;21048;-76
2020/12/06 04:06:21;;;;;;;20.35;11.48;;;3.40;99.90;;;;;;1973635;72;21126;-77
2020/12/06 04:08:47;;;;;;;23.92;12.07;;;3.40;99.90;;;;;;1975896;72;21052;-77
2020/12/06 04:11:13;;;;;;;20.12;11.53;;;3.40;99.90;;;;;;1980056;72;21064;-76
2020/12/06 04:13:39;;;;;;;22.85;11.75;;;3.40;99.90;;;;;;1986929;72;21122;-75
2020/12/06 04:16:05;;;;;;;22.77;12.28;;;3.40;99.90;;;;;;1975242;72;21079;-77
2020/12/06 04:18:32;;;;;;;22.42;11.57;;;3.40;99.90;;;;;;1966595;73;21072;-76
2020/12/06 04:20:58;;;;;;;21.60;12.00;;;3.40;99.90;;;;;;1970333;72;21467;-77
2020/12/06 04:23:24;;;;;;;21.40;10.93;;;3.50;99.90;;;;;;1966586;73;21513;-76
2020/12/06 04:25:50;;;;;;;16.77;10.35;;;3.60;99.90;;;;;;1973701;72;21467;-76
2020/12/06 04:28:16;;;;;;;31.35;12.25;;;3.50;99.90;;;;;;1969239;72;21608;-77
2020/12/06 04:30:44;;;;;;;24.92;12.23;;;3.50;99.90;;;;;;1970601;72;21075;-76
2020/12/06 04:33:10;;;;;;;25.68;12.28;;;3.40;99.90;;;;;;1966521;73;21085;-76
2020/12/06 04:35:36;;;;;;;21.30;11.38;;;3.50;99.90;;;;;;1966533;73;21075;-77
2020/12/06 04:38:02;;;;;;;24.23;12.10;;;3.40;99.90;;;;;;1969472;72;21527;-77
2020/12/06 04:40:30;;;;;;;24.65;11.83;;;3.40;99.90;;;;;;1974808;72;21506;-77
2020/12/06 04:42:56;;;;;;;21.93;10.63;;;3.30;99.90;;;;;;1966432;73;21092;-76
2020/12/06 04:45:22;;;;;;;21.20;11.22;;;3.30;99.90;;;;;;1969925;72;21158;-76
2020/12/06 04:47:48;;;;;;;26.95;11.95;;;3.40;99.90;;;;;;1974660;72;21068;-77
2020/12/06 04:50:15;;;;;;;25.77;11.08;;;3.40;99.90;;;;;;1983578;72;21123;-77
2020/12/06 04:52:41;;;;;;;26.07;11.68;;;3.40;99.90;;;;;;1974922;72;21137;-76
2020/12/06 04:55:07;;;;;;;23.10;12.07;;;3.40;99.90;;;;;;1973400;72;21061;-76
2020/12/06 04:57:34;;;;;;;26.23;12.28;;;3.30;99.90;;;;;;1968186;72;21033;-77
2020/12/06 05:00:00;;;;;;;25.40;11.15;;;3.30;99.90;;;;;;1975833;72;21060;-76
2020/12/06 05:02:26;;;;;;;28.95;12.70;;;3.30;99.90;;;;;;1979656;72;21072;-75
2020/12/06 05:04:52;;;;;;;28.65;13.85;;;3.30;99.90;;;;;;1972704;72;21145;-75
2020/12/06 05:07:18;;;;;;;31.97;14.35;;;3.20;99.90;;;;;;1966520;73;21486;-75
2020/12/06 05:09:45;;;;;;;32.30;12.88;;;3.10;99.90;;;;;;1980074;72;21452;-76
2020/12/06 05:12:11;;;;;;;28.52;14.40;;;3.10;99.90;;;;;;1981349;72;21083;-75
2020/12/06 05:14:38;;;;;;;23.85;12.37;;;3.10;99.90;;;;;;1966528;72;21149;-75
2020/12/06 05:17:04;;;;;;;31.05;14.85;;;3.20;99.90;;;;;;1966513;72;21166;-77
2020/12/06 05:19:30;;;;;;;35.80;13.68;;;3.20;99.90;;;;;;1966443;72;21079;-75
2020/12/06 05:21:56;;;;;;;32.80;15.10;;;3.20;99.90;;;;;;1968175;72;21029;-77
2020/12/06 05:24:22;;;;;;;33.23;14.65;;;3.20;99.90;;;;;;1979965;72;21067;-77
2020/12/06 05:26:48;;;;;;;31.00;14.70;;;3.20;99.90;;;;;;1967744;72;21035;-77
2020/12/06 05:29:14;;;;;;;29.85;14.90;;;3.20;99.90;;;;;;1983363;72;21519;-77
2020/12/06 05:31:40;;;;;;;37.13;14.43;;;3.20;99.90;;;;;;1977427;72;21468;-75
2020/12/06 05:34:07;;;;;;;33.05;13.85;;;3.20;99.90;;;;;;1970954;72;21565;-76
2020/12/06 05:36:33;;;;;;;38.65;14.35;;;3.20;99.90;;;;;;1983476;72;21064;-77
2020/12/06 05:38:59;;;;;;;27.80;13.43;;;3.20;99.90;;;;;;1985318;72;21134;-77
2020/12/06 05:41:25;;;;;;;37.20;15.08;;;3.20;99.90;;;;;;1970115;72;21068;-77
2020/12/06 05:43:51;;;;;;;31.37;13.50;;;3.20;99.90;;;;;;1975713;72;21048;-74
2020/12/06 05:46:17;;;;;;;41.40;15.05;;;3.20;99.90;;;;;;1967645;72;21145;-74
2020/12/06 05:48:43;;;;;;;30.97;14.00;;;3.10;99.90;;;;;;1976539;72;21075;-74
2020/12/06 05:51:09;;;;;;;32.83;14.60;;;3.20;99.90;;;;;;1966482;72;21149;-75
2020/12/06 05:53:35;;;;;;;33.23;13.80;;;3.20;99.90;;;;;;1966647;72;21126;-77
2020/12/06 05:56:02;;;;;;;33.67;14.40;;;3.30;99.90;;;;;;1975827;72;21049;-77
2020/12/06 05:58:28;;;;;;;33.02;13.72;;;3.20;99.90;;;;;;1979515;72;21060;-76
2020/12/06 06:00:54;;;;;;;28.07;14.43;;;3.20;99.90;;;;;;1976093;72;21133;-75
2020/12/06 06:03:20;;;;;;;35.40;15.00;;;3.20;99.90;;;;;;1975201;72;21064;-78
2020/12/06 06:05:46;;;;;;;32.15;14.85;;;3.20;99.90;;;;;;1975751;72;21182;-77
2020/12/06 06:08:12;;;;;;;30.48;14.78;;;3.20;99.90;;;;;;1966572;72;21075;-77
2020/12/06 06:10:38;;;;;;;38.75;14.00;;;3.20;99.90;;;;;;1981388;72;21189;-77
2020/12/06 06:13:04;;;;;;;37.70;15.43;;;3.20;99.90;;;;;;1979564;72;21584;-77
2020/12/06 06:15:31;;;;;;;31.25;14.40;;;3.20;99.90;;;;;;1979024;72;21472;-75
2020/12/06 06:17:57;;;;;;;31.20;13.93;;;3.30;99.90;;;;;;1968685;72;21160;-76
2020/12/06 06:20:23;;;;;;;29.92;15.08;;;3.20;99.90;;;;;;1967883;72;21036;-77
2020/12/06 06:22:49;;;;;;;37.20;14.83;;;3.20;99.90;;;;;;1966512;73;21064;-75
2020/12/06 06:25:16;;;;;;;39.35;15.72;;;3.20;99.90;;;;;;1977237;72;21103;-77
2020/12/06 06:27:42;;;;;;;36.55;15.55;;;3.30;99.90;;;;;;1979371;72;21499;-77
2020/12/06 06:30:08;;;;;;;34.20;15.13;;;3.40;99.90;;;;;;1951972;72;21068;-77
2020/12/06 06:32:35;;;;;;;33.02;15.32;;;3.40;99.90;;;;;;1975026;72;21168;-77
2020/12/06 06:35:01;;;;;;;30.70;13.13;;;3.30;99.90;;;;;;1977607;72;21036;-74
2020/12/06 06:37:27;;;;;;;33.88;14.30;;;3.40;99.90;;;;;;1977066;72;21072;-77
2020/12/06 06:39:53;;;;;;;32.03;15.23;;;3.40;99.90;;;;;;1966406;73;21063;-77
2020/12/06 06:42:19;;;;;;;37.65;15.05;;;3.40;99.90;;;;;;1966647;73;21165;-77
2020/12/06 06:44:45;;;;;;;34.60;15.88;;;3.40;99.90;;;;;;1966731;73;21181;-77
2020/12/06 06:47:11;;;;;;;26.55;13.05;;;3.50;99.90;;;;;;1970450;72;21153;-77
2020/12/06 06:49:37;;;;;;;35.80;14.80;;;3.40;99.90;;;;;;1977536;72;21084;-77
2020/12/06 06:52:04;;;;;;;30.72;15.18;;;3.30;99.90;;;;;;1966612;72;21114;-77
2020/12/06 06:54:30;;;;;;;31.52;13.90;;;3.20;99.90;;;;;;1976052;72;21170;-75
2020/12/06 06:56:57;;;;;;;31.87;14.83;;;3.30;99.90;;;;;;1986903;72;21056;-76
2020/12/06 06:59:23;;;;;;;39.08;14.38;;;3.30;99.90;;;;;;1976172;72;21040;-77
2020/12/06 07:01:49;;;;;;;30.75;14.50;;;3.30;99.90;;;;;;1972102;72;21068;-77
2020/12/06 07:04:15;;;;;;;28.50;13.70;;;3.30;99.90;;;;;;1979281;72;21127;-75
2020/12/06 07:06:41;;;;;;;28.95;12.95;;;3.40;99.90;;;;;;1975734;72;21060;-75
2020/12/06 07:09:07;;;;;;;27.22;12.82;;;3.40;99.90;;;;;;1972210;72;21035;-76
2020/12/06 07:11:33;;;;;;;29.90;14.45;;;3.40;99.90;;;;;;1975980;72;21036;-76
2020/12/06 07:13:59;;;;;;;28.67;14.53;;;3.50;99.90;;;;;;1972180;72;21060;-76
2020/12/06 07:16:27;;;;;;;34.25;14.50;;;3.30;99.90;;;;;;1970454;72;21103;-76
2020/12/06 07:18:53;;;;;;;31.90;12.90;;;3.20;99.90;;;;;;1984172;72;21116;-75
2020/12/06 07:21:19;;;;;;;33.13;13.20;;;3.30;99.90;;;;;;1973636;72;21068;-76
2020/12/06 07:23:45;;;;;;;27.82;12.50;;;3.30;99.90;;;;;;1966449;72;21197;-75
2020/12/06 07:26:11;;;;;;;36.45;13.32;;;3.40;99.90;;;;;;1977872;72;21071;-76
2020/12/06 07:28:38;;;;;;;28.30;12.30;;;3.40;99.90;;;;;;1973603;72;21052;-76
2020/12/06 07:31:04;;;;;;;28.50;14.00;;;3.30;99.90;;;;;;1966395;72;21585;-75
2020/12/06 07:33:30;;;;;;;34.50;14.47;;;3.40;99.90;;;;;;1983383;72;21471;-76
2020/12/06 07:35:56;;;;;;;34.35;12.58;;;3.40;99.90;;;;;;1971262;72;21495;-76
2020/12/06 07:38:22;;;;;;;30.27;12.18;;;3.40;99.90;;;;;;1966451;72;21605;-75
2020/12/06 07:40:48;;;;;;;27.98;12.40;;;3.40;99.90;;;;;;1976955;72;21075;-76
2020/12/06 07:43:14;;;;;;;29.57;12.65;;;3.40;99.90;;;;;;1974239;72;21037;-76
2020/12/06 07:45:41;;;;;;;27.82;12.20;;;3.40;99.90;;;;;;1983348;72;21037;-75
2020/12/06 07:48:07;;;;;;;34.83;14.30;;;3.50;99.90;;;;;;1974281;72;21503;-75
2020/12/06 07:50:33;;;;;;;26.62;13.00;;;3.40;99.90;;;;;;1966473;73;21529;-76
2020/12/06 07:53:03;;;;;;;24.90;12.50;;;3.40;99.90;;;;;;1966444;73;21503;-75
2020/12/06 07:55:27;;;;;;;31.37;13.20;;;3.50;99.90;;;;;;1980464;72;21108;-77
2020/12/06 07:57:53;;;;;;;32.05;14.73;;;3.50;99.90;;;;;;1974003;72;21049;-75
2020/12/06 08:00:19;;;;;;;29.75;13.58;;;3.40;99.90;;;;;;1981632;72;21144;-76
2020/12/06 08:02:45;;;;;;;31.05;13.48;;;3.40;99.90;;;;;;1968311;72;21212;-76
2020/12/06 08:05:11;;;;;;;31.37;13.60;;;3.40;99.90;;;;;;1975116;72;21532;-76
2020/12/06 08:07:37;;;;;;;30.95;13.28;;;3.50;99.90;;;;;;1980125;72;21449;-76
2020/12/06 08:10:03;;;;;;;32.53;13.40;;;3.50;99.90;;;;;;1975843;72;21545;-75
2020/12/06 08:12:29;;;;;;;31.85;13.38;;;3.40;99.90;;;;;;1972663;72;21583;-76
2020/12/06 08:14:56;;;;;;;38.63;14.60;;;3.40;99.90;;;;;;1970345;72;21122;-75
2020/12/06 08:17:22;;;;;;;29.95;14.68;;;3.40;99.90;;;;;;1973384;72;21068;-76
2020/12/06 08:19:48;;;;;;;32.83;12.87;;;3.40;99.90;;;;;;1966500;73;21025;-75
2020/12/06 08:22:14;;;;;;;35.05;14.47;;;3.40;99.90;;;;;;1980573;72;21252;-76
2020/12/06 08:24:40;;;;;;;38.67;13.30;;;3.40;99.90;;;;;;1983159;72;21174;-75
2020/12/06 08:27:06;;;;;;;37.55;13.03;;;3.30;99.90;;;;;;1978192;72;21061;-77
2020/12/06 08:29:32;;;;;;;39.60;14.20;;;3.30;99.90;;;;;;1977690;72;21138;-76
2020/12/06 08:31:58;;;;;;;32.28;14.07;;;3.40;99.90;;;;;;1984592;72;21131;-75
2020/12/06 08:34:25;;;;;;;37.10;14.20;;;3.50;99.90;;;;;;1966771;73;21149;-75
2020/12/06 08:36:51;;;;;;;29.52;14.05;;;3.60;99.90;;;;;;1966645;72;21129;-75
2020/12/06 08:39:17;;;;;;;31.95;15.35;;;3.60;99.90;;;;;;1966703;73;21068;-76
2020/12/06 08:41:43;;;;;;;35.58;13.43;;;3.50;99.90;;;;;;1974127;72;21029;-76
2020/12/06 08:44:09;;;;;;;29.42;12.15;;;3.50;99.90;;;;;;1977429;72;21076;-76
2020/12/06 08:46:35;;;;;;;35.83;13.05;;;3.60;99.90;;;;;;1966667;73;21196;-76
2020/12/06 08:49:01;;;;;;;41.98;13.68;;;3.70;99.90;;;;;;1966537;73;21164;-77
2020/12/06 08:51:28;;;;;;;29.57;12.00;;;3.60;99.90;;;;;;1966680;73;21031;-76
2020/12/06 08:53:54;;;;;;;26.87;11.85;;;3.60;99.90;;;;;;1966442;73;21079;-76
2020/12/06 08:56:20;;;;;;;34.40;13.15;;;3.70;99.90;;;;;;1966635;73;21036;-76
2020/12/06 08:58:46;;;;;;;35.78;12.25;;;3.70;99.90;;;;;;1977806;71;21158;-77
2020/12/06 09:01:12;;;;;;;37.20;14.43;;;3.60;99.90;;;;;;1973950;72;21121;-77
2020/12/06 09:03:38;;;;;;;32.20;12.30;;;3.70;99.90;;;;;;1974104;72;21056;-77
2020/12/06 09:06:04;;;;;;;34.92;11.73;;;3.80;99.90;;;;;;1981664;72;21134;-77
2020/12/06 09:08:30;;;;;;;36.08;12.55;;;3.90;99.90;;;;;;1966897;72;21053;-77
2020/12/06 09:10:56;;;;;;;29.80;11.20;;;3.90;99.90;;;;;;1973187;72;21127;-77
2020/12/06 09:13:23;;;;;;;33.88;11.57;;;4.00;99.90;;;;;;1986829;72;21065;-77
2020/12/06 09:15:49;;;;;;;26.62;11.55;;;3.90;99.90;;;;;;1983339;72;21072;-77
2020/12/06 09:18:15;;;;;;;32.85;12.95;;;4.00;99.90;;;;;;1976609;72;21161;-77
2020/12/06 09:20:41;;;;;;;30.45;10.93;;;4.00;99.90;;;;;;1973995;72;21079;-77
2020/12/06 09:23:07;;;;;;;29.95;10.90;;;4.10;99.90;;;;;;1976716;72;21495;-77
2020/12/06 09:25:33;;;;;;;31.93;11.60;;;4.00;99.90;;;;;;1986803;72;21453;-77
2020/12/06 09:27:59;;;;;;;30.97;12.73;;;4.10;99.90;;;;;;1977237;72;21499;-77
2020/12/06 09:30:25;;;;;;;33.10;11.30;;;3.90;99.90;;;;;;1966401;72;21495;-77
2020/12/06 09:32:52;;;;;;;27.62;9.75;;;3.70;99.90;;;;;;1966452;72;21496;-77
2020/12/06 09:35:18;;;;;;;25.90;9.38;;;3.70;99.90;;;;;;1985687;72;21157;-77
2020/12/06 09:37:44;;;;;;;25.43;9.60;;;3.80;99.90;;;;;;1986865;72;21133;-76
2020/12/06 09:40:13;;;;;;;26.60;10.95;;;3.80;99.90;;;;;;1985053;72;21185;-77
2020/12/06 09:42:38;;;;;;;32.10;11.93;;;3.80;99.90;;;;;;1973962;72;21613;-76
2020/12/06 09:45:04;;;;;;;28.27;10.70;;;3.80;99.90;;;;;;1966392;73;21501;-74
2020/12/06 09:47:30;;;;;;;30.68;11.48;;;3.80;99.90;;;;;;1984910;72;21652;-77
2020/12/06 09:49:56;;;;;;;30.23;10.82;;;3.80;99.90;;;;;;1979410;72;21083;-76
2020/12/06 09:52:22;;;;;;;34.85;11.15;;;3.90;99.90;;;;;;1975876;72;21148;-77
2020/12/06 09:54:48;;;;;;;36.30;13.13;;;3.90;99.90;;;;;;1973387;72;21091;-77
2020/12/06 09:57:14;;;;;;;26.40;11.20;;;3.90;99.90;;;;;;1968138;72;21068;-76
2020/12/06 09:59:44;;;;;;;26.50;10.65;;;3.90;99.90;;;;;;1986279;72;21141;-77
2020/12/06 10:02:08;;;;;;;26.05;10.58;;;4.10;99.90;;;;;;1972078;72;21574;-74
2020/12/06 10:04:34;;;;;;;27.22;10.63;;;4.20;99.90;;;;;;1986245;72;21072;-74
2020/12/06 10:07:01;;;;;;;23.57;10.45;;;4.20;99.90;;;;;;1976743;72;21030;-75
2020/12/06 10:09:27;;;;;;;29.18;9.88;;;4.10;99.90;;;;;;1986678;72;21122;-75
2020/12/06 10:11:53;;;;;;;22.82;10.15;;;4.20;99.90;;;;;;1986688;72;21139;-75
2020/12/06 10:14:19;;;;;;;25.85;9.75;;;4.10;99.90;;;;;;1979558;72;21133;-75
2020/12/06 10:16:45;;;;;;;23.80;9.20;;;4.20;99.90;;;;;;1976466;72;21071;-75
2020/12/06 10:19:11;;;;;;;24.25;9.13;;;4.20;99.90;;;;;;1984610;72;21029;-75
2020/12/06 10:21:37;;;;;;;21.57;10.05;;;4.20;99.90;;;;;;1977888;72;21060;-76
2020/12/06 10:24:03;;;;;;;25.85;10.20;;;4.20;99.90;;;;;;1972540;72;21068;-76
2020/12/06 10:26:30;;;;;;;25.72;9.35;;;4.20;99.90;;;;;;1979470;72;21056;-76
2020/12/06 10:29:00;;;;;;;27.93;10.23;;;4.20;99.90;;;;;;1975358;72;21068;-75
2020/12/06 10:31:23;;;;;;;26.17;10.25;;;4.40;99.90;;;;;;1965832;72;21085;-78
2020/12/06 10:33:50;;;;;;;18.30;8.83;;;4.50;99.90;;;;;;1968472;72;21067;-77
2020/12/06 10:36:16;;;;;;;22.80;9.60;;;4.50;99.90;;;;;;1977424;72;21118;-77
2020/12/06 10:38:42;;;;;;;25.25;10.10;;;4.70;99.90;;;;;;1966564;72;21137;-78
2020/12/06 10:41:08;;;;;;;29.12;9.98;;;4.70;99.90;;;;;;1968608;72;21068;-78
2020/12/06 10:43:34;;;;;;;22.50;8.93;;;4.80;99.90;;;;;;1985674;72;21060;-75
2020/12/06 10:46:00;;;;;;;21.25;9.48;;;4.80;99.90;;;;;;1969807;72;21076;-75
2020/12/06 10:48:26;;;;;;;21.62;8.80;;;4.90;99.90;;;;;;1966296;72;21153;-75
2020/12/06 10:50:52;;;;;;;19.30;8.93;;;4.90;99.90;;;;;;1966442;72;21083;-74
2020/12/06 10:53:19;;;;;;;19.42;8.38;;;4.90;99.90;;;;;;1966502;73;21072;-76
2020/12/06 10:55:45;;;;;;;17.27;8.20;;;4.90;99.90;;;;;;1973202;72;21068;-76
2020/12/06 10:58:11;;;;;;;23.95;9.53;;;4.90;99.90;;;;;;1983272;72;21565;-77
2020/12/06 11:00:37;;;;;;;26.95;10.15;;;4.80;99.90;;;;;;1978933;72;21490;-75
2020/12/06 11:03:03;;;;;;;21.33;9.70;;;4.80;99.90;;;;;;1933128;73;21448;-77
2020/12/06 11:05:29;;;;;;;17.17;8.85;;;4.60;99.90;;;;;;1969803;72;21465;-76
2020/12/06 11:07:55;;;;;;;15.23;7.87;;;4.70;99.90;;;;;;1976445;72;21259;-76
2020/12/06 11:10:21;;;;;;;15.68;7.37;;;4.80;99.90;;;;;;1970537;72;21068;-77
2020/12/06 11:12:47;;;;;;;16.10;7.12;;;4.80;99.90;;;;;;1969427;72;21068;-76
2020/12/06 11:15:14;;;;;;;19.95;8.13;;;4.80;99.90;;;;;;1965901;72;21072;-74
2020/12/06 11:17:40;;;;;;;14.90;6.92;;;4.80;99.90;;;;;;1973684;72;21065;-75
2020/12/06 11:20:06;;;;;;;20.70;7.55;;;4.80;99.90;;;;;;1980877;72;21192;-74
2020/12/06 11:22:32;;;;;;;15.08;7.42;;;4.90;99.90;;;;;;1970188;72;21126;-73
2020/12/06 11:24:58;;;;;;;16.75;8.00;;;4.80;99.90;;;;;;1966355;73;21071;-73
2020/12/06 11:27:24;;;;;;;15.35;7.95;;;4.70;99.90;;;;;;1970094;72;21133;-73
2020/12/06 11:29:53;;;;;;;15.35;7.25;;;4.70;99.90;;;;;;1966173;73;21032;-72
2020/12/06 11:32:18;;;;;;;15.05;7.70;;;4.70;99.90;;;;;;1973920;72;21166;-73
2020/12/06 11:34:44;;;;;;;20.60;8.15;;;4.80;99.90;;;;;;1974754;72;21162;-73
2020/12/06 11:37:12;;;;;;;13.72;7.30;;;5.00;99.90;;;;;;1979676;72;21060;-72
2020/12/06 11:39:38;;;;;;;16.57;7.10;;;5.10;99.90;;;;;;1986160;72;21060;-74
2020/12/06 11:42:04;;;;;;;11.95;6.30;;;5.20;99.90;;;;;;1971394;72;21048;-74
2020/12/06 11:44:30;;;;;;;15.20;7.20;;;5.20;99.90;;;;;;1965918;72;21100;-74
2020/12/06 11:46:57;;;;;;;11.95;6.30;;;5.30;99.90;;;;;;1985186;72;21142;-73
2020/12/06 11:52:19;;;;;;;16.75;6.10;;;5.30;99.90;;;;;;2049559;69;27893;-74
2020/12/06 11:54:45;;;;;;;15.10;6.72;;;5.30;99.90;;;;;;2007276;70;21055;-73
2020/12/06 11:57:11;;;;;;;14.03;7.12;;;5.20;99.90;;;;;;2011060;71;21107;-74
2020/12/06 11:59:37;;;;;;;17.50;7.20;;;5.20;99.90;;;;;;2006033;70;21104;-75
2020/12/06 12:02:04;;;;;;;12.05;6.50;;;5.10;99.90;;;;;;2008525;70;21027;-74
2020/12/06 12:04:30;;;;;;;12.73;6.35;;;5.20;99.90;;;;;;2021973;70;21027;-74
2020/12/06 12:06:56;;;;;;;13.35;7.25;;;5.20;99.90;;;;;;2015126;70;21120;-75
2020/12/06 12:09:22;;;;;;;14.70;7.00;;;5.00;99.90;;;;;;2012042;70;21083;-74
2020/12/06 12:11:48;;;;;;;9.23;5.85;;;4.90;99.90;;;;;;1967949;72;21141;-75
2020/12/06 12:14:14;;;;;;;16.12;6.10;;;4.90;99.90;;;;;;1932596;73;21037;-74
2020/12/06 12:16:40;;;;;;;19.65;6.83;;;5.00;99.90;;;;;;2010794;70;21100;-75
2020/12/06 12:19:06;;;;;;;11.57;5.83;;;4.90;99.90;;;;;;2011054;70;21529;-74
2020/12/06 12:21:33;;;;;;;10.20;5.90;;;4.90;99.90;;;;;;2011122;70;21440;-75
2020/12/06 12:23:59;;;;;;;12.35;6.50;;;4.90;99.90;;;;;;2011065;71;21505;-75
2020/12/06 12:26:25;;;;;;;14.18;5.83;;;4.80;99.90;;;;;;2007703;70;21511;-77
2020/12/06 12:28:51;;;;;;;12.28;6.28;;;4.90;99.90;;;;;;1974907;72;21113;-78
2020/12/06 12:31:17;;;;;;;16.00;6.72;;;4.70;99.90;;;;;;1937434;73;21140;-77
2020/12/06 12:33:43;;;;;;;15.83;6.83;;;4.70;99.90;;;;;;1926700;73;21124;-75
2020/12/06 12:36:09;;;;;;;11.53;6.28;;;4.80;99.90;;;;;;2010242;70;21020;-75